createdAt,value
2022-09-16T00:15:55.103Z,77.20
2022-09-16T00:32:43.440Z,76.39
2022-09-16T00:49:32.736Z,76.23
2022-09-16T01:06:22.950Z,75.36
2022-09-16T01:23:38.057Z,75.43
2022-09-16T01:40:33.731Z,75.22
2022-09-16T01:57:25.609Z,74.98
2022-09-16T02:14:18.779Z,74.14
2022-09-16T02:31:10.985Z,74.06
2022-09-16T02:48:06.833Z,73.55
2022-09-16T03:04:54.946Z,73.76
2022-09-16T03:21:49.626Z,74.32
2022-09-16T03:38:40.586Z,74.50
2022-09-16T03:55:28.497Z,74.79
2022-09-16T04:12:16.503Z,75.14
2022-09-16T04:29:05.267Z,74.77
2022-09-16T04:45:54.494Z,75.09
2022-09-16T05:02:42.458Z,75.70
2022-09-16T05:19:30.804Z,75.50
2022-09-16T05:36:19.940Z,75.45
2022-09-16T05:53:09.440Z,74.60
2022-09-16T06:09:58.099Z,74.32
2022-09-16T06:26:48.649Z,73.37
2022-09-16T06:43:37.775Z,72.76
2022-09-16T07:00:30.326Z,72.22
2022-09-16T07:17:19.498Z,71.66
2022-09-16T07:34:12.504Z,71.16
2022-09-16T07:51:03.807Z,70.26
2022-09-16T08:07:52.954Z,68.62
2022-09-16T08:24:43.103Z,67.82
2022-09-16T08:41:51.924Z,66.83
2022-09-16T08:58:46.862Z,65.53
2022-09-16T09:15:43.435Z,64.93
2022-09-16T09:32:49.355Z,64.29
2022-09-16T09:49:42.885Z,63.61
2022-09-16T10:06:36.114Z,63.04
2022-09-16T10:23:29.925Z,62.69
2022-09-16T10:40:23.198Z,61.91
2022-09-16T10:57:26.198Z,61.89
2022-09-16T11:14:27.483Z,61.36
2022-09-16T11:31:31.457Z,60.95
2022-09-16T11:48:40.206Z,60.21
2022-09-16T12:05:32.657Z,59.42
2022-09-16T12:22:26.969Z,58.90
2022-09-16T12:39:16.027Z,58.55
2022-09-16T12:56:11.023Z,57.98
2022-09-16T13:13:01.863Z,57.35
2022-09-16T13:29:49.964Z,57.52
2022-09-16T13:46:39.509Z,57.82
2022-09-16T14:03:53.735Z,57.41
2022-09-16T14:20:51.999Z,57.13
2022-09-16T14:37:41.391Z,56.77
2022-09-16T14:54:30.541Z,56.81
2022-09-16T15:11:46.621Z,56.84
2022-09-16T15:28:31.884Z,56.37
2022-09-16T15:45:21.507Z,56.39
2022-09-16T16:02:25.462Z,56.52
2022-09-16T16:19:15.089Z,56.67
2022-09-16T16:36:04.127Z,55.82
2022-09-16T16:52:55.838Z,56.01
2022-09-16T17:09:44.454Z,56.59
2022-09-16T17:26:32.717Z,57.58
2022-09-16T17:43:20.983Z,58.12
2022-09-16T18:00:11.462Z,58.84
2022-09-16T18:17:00.121Z,59.54
2022-09-16T18:33:48.499Z,60.11
2022-09-16T18:50:38.056Z,60.36
2022-09-16T19:07:28.072Z,60.36
2022-09-16T19:24:18.275Z,61.01
2022-09-16T19:41:07.313Z,61.32
2022-09-16T19:57:55.527Z,61.89
2022-09-16T20:14:43.868Z,62.15
2022-09-16T20:31:33.744Z,62.06
2022-09-16T20:48:21.843Z,62.20
2022-09-16T21:05:11.967Z,62.32
2022-09-16T21:21:59.870Z,63.28
2022-09-16T21:38:48.688Z,63.91
2022-09-16T21:55:37.153Z,64.49
2022-09-16T22:12:25.253Z,65.18
2022-09-16T22:29:14.494Z,65.85
2022-09-16T22:46:08.188Z,66.53
2022-09-16T23:02:56.562Z,66.65
2022-09-16T23:19:44.515Z,67.26
2022-09-16T23:36:32.206Z,67.29
2022-09-16T23:53:20.243Z,67.87
